Portland, CT (06480)

6:54 AM EDT on April 26, 2015 (GMT -0400)
Portland Hilltop | | Change Station
CLOSE
Current Station
Personal Weather Station
Location: Portland, CT
Elevation: 417 ft
Nearby Weather Stations
Active Advisory: Frost Advisory Active Notice: Public Information Statement

Elev 417 ft 41.57 °N, 72.57 °W | Updated 5 seconds ago

Clear
Clear
36.6 °F
Feels Like 37 °F
N
0.0
Wind Variable Wind from ENE
Gusts 1.0 mph

Today
High -- | Low -- °F
--% Chance of Precip.
Yesterday
High -- | Low -- °F
Precip. -- in
5:54 AM 7:42 PM
First Quarter, 54% visible
Pressure 29.70 in
Visibility 10.0 miles
Clouds Mostly Cloudy 7000 ft
Windchill 37 °F
Dew Point 32 °F
Humidity 82%
Rainfall 0.00 in
Snow Depth Not available.
UV 0 out of 12
Pollen 10.50 out of 12
Air Quality Not available.
Flu Activity Widespread
METAR KHFD 260953Z 00000KT 10SM BKN070 01/M01 A2970 RMK AO2 SLP058 T00111011

More Conditions Fewer Conditions

Pressure 29.70 in
Visibility 10.0 miles
Clouds Mostly Cloudy 7000 ft
Windchill 37 °F
Dew Point 32 °F
Humidity 82%
Rainfall 0.00 in
Snow Depth Not available.
UV 0 out of 12
Pollen 10.50 out of 12
Air Quality Not available.
Flu Activity Widespread
METAR KHFD 260953Z 00000KT 10SM BKN070 01/M01 A2970 RMK AO2 SLP058 T00111011

More Conditions Fewer Conditions

The full scope of the disaster following a powerful 7.8-magnitude earthquake in Nepal may not come into view for days, but global charities are already sending emergency aid. Click to see how you can help.

10-Day Weather Forecast

Almanac

Astronomy

Apr. 26, 2015 Rise Set
Actual Time
Civil Twilight
Nautical Twilight
Astronomical Twilight
Moon
Length of Visible Light
Length of Day
Tomorrow will be .
, % of the Moon is Illuminated

Today's Extremes

State Highs State Lows

Community

WunderPhotos

Upload Photos

1,816,962 photos uploaded!

WunderBlogs® & News

Nearby

Air Quality

  Air Quality AQ Index Pollutant
Not available.

Snow Depth

Station Depth Elevation

Earthquake Activity

City Distance Mag. Time & Date
Minimum magnitude displayed is 2.5.

Coastal Water Temperatures

Place Temperature

Stations

Nearby Weather Stations

Station Location Temp. Windchill Dew Point Humidity Wind Precip. Elev Updated Type
                   
Frost Advisory
Statement as of 3:23 AM EDT on April 26, 2015

... Frost advisory remains in effect until 8 am EDT this morning...

* locations... much of southern Connecticut and the lower Hudson
Valley... interior portions of northeastern New Jersey... and
eastern Long Island.

* Hazards... ground temperatures falling to freezing.

* Temperatures... 30s.

* Timing... until 8 am.

* Impacts... possible damage to early season plants that are
unprotected.

Precautionary/preparedness actions...

A frost advisory means that frost is expected. Sensitive outdoor
plants should be protected.



Jmc